createdAt,value
2023-02-08T00:01:26.932Z,91.66
2023-02-08T00:03:56.781Z,91.99
2023-02-08T00:06:25.097Z,92.38
2023-02-08T00:08:55.048Z,92.41
2023-02-08T00:11:24.149Z,92.36
2023-02-08T00:13:52.219Z,92.33
2023-02-08T00:16:20.498Z,92.59
2023-02-08T00:18:49.527Z,92.73
2023-02-08T00:21:18.749Z,92.92
2023-02-08T00:23:47.539Z,92.95
2023-02-08T00:26:17.315Z,93.03
2023-02-08T00:28:45.895Z,92.98
2023-02-08T00:31:16.512Z,92.66
2023-02-08T00:33:44.577Z,92.54
2023-02-08T00:36:13.524Z,92.40
2023-02-08T00:38:41.773Z,92.12
2023-02-08T00:41:10.194Z,91.84
2023-02-08T00:43:40.391Z,91.90
2023-02-08T00:46:09.546Z,92.00
2023-02-08T00:48:38.323Z,92.30
2023-02-08T00:51:09.253Z,92.54
2023-02-08T00:53:38.473Z,92.77
2023-02-08T00:56:08.141Z,93.09
2023-02-08T00:58:36.767Z,93.22
2023-02-08T01:01:07.869Z,93.40
2023-02-08T01:03:37.318Z,93.55
2023-02-08T01:06:08.711Z,93.61
2023-02-08T01:08:38.396Z,93.65
2023-02-08T01:11:08.704Z,93.68
2023-02-08T01:13:37.697Z,93.71
2023-02-08T01:16:14.200Z,93.73
2023-02-08T01:18:44.790Z,93.66
2023-02-08T01:21:15.848Z,93.72
2023-02-08T01:23:44.618Z,93.69
2023-02-08T01:26:14.172Z,93.79
2023-02-08T01:28:44.506Z,93.80
2023-02-08T01:31:15.995Z,93.85
2023-02-08T01:33:44.350Z,93.93
2023-02-08T01:36:13.309Z,93.84
2023-02-08T01:38:41.721Z,93.85
2023-02-08T01:41:15.788Z,93.91
2023-02-08T01:44:04.426Z,93.97
2023-02-08T01:46:34.699Z,94.07
2023-02-08T01:49:07.318Z,94.11
2023-02-08T01:51:37.589Z,94.08
2023-02-08T01:54:06.785Z,94.02
2023-02-08T01:56:37.667Z,94.02
2023-02-08T01:59:08.625Z,94.00
2023-02-08T02:01:39.258Z,93.94
2023-02-08T02:04:08.196Z,94.13
2023-02-08T02:06:39.137Z,94.24
2023-02-08T02:09:13.245Z,94.29
2023-02-08T02:11:41.507Z,94.20
2023-02-08T02:14:13.148Z,94.14
2023-02-08T02:16:43.079Z,94.16
2023-02-08T02:19:16.884Z,94.20
2023-02-08T02:21:53.266Z,94.20
2023-02-08T02:24:42.399Z,94.20
2023-02-08T02:27:31.323Z,94.19
2023-02-08T02:30:32.695Z,94.17
2023-02-08T02:36:04.328Z,94.10
2023-02-08T02:38:43.317Z,94.14
2023-02-08T02:41:41.165Z,94.16
2023-02-08T02:44:16.679Z,94.07
2023-02-08T02:46:49.853Z,94.00
2023-02-08T02:49:23.170Z,93.99
2023-02-08T02:51:58.326Z,93.95
2023-02-08T02:54:30.998Z,93.88
2023-02-08T02:57:02.903Z,93.88
2023-02-08T02:59:30.826Z,93.90
2023-02-08T03:01:58.793Z,93.88
2023-02-08T03:04:49.850Z,93.87
2023-02-08T03:07:28.982Z,93.92
2023-02-08T03:10:05.865Z,93.96
2023-02-08T03:12:41.899Z,93.91
2023-02-08T03:15:18.321Z,93.91
2023-02-08T03:17:56.841Z,93.92
2023-02-08T03:20:27.286Z,93.93
2023-02-08T03:23:01.739Z,93.89
2023-02-08T03:25:34.288Z,93.92
2023-02-08T03:28:06.618Z,93.93
2023-02-08T03:30:46.112Z,93.94
2023-02-08T03:33:15.993Z,93.95
2023-02-08T03:35:49.804Z,93.96
2023-02-08T03:38:22.359Z,93.95
2023-02-08T03:40:52.585Z,93.91
2023-02-08T03:43:24.399Z,93.86
2023-02-08T03:45:53.013Z,93.85
2023-02-08T03:48:23.117Z,93.87
2023-02-08T03:50:54.132Z,93.82
2023-02-08T03:53:25.371Z,93.84
2023-02-08T03:55:57.446Z,93.85
2023-02-08T03:58:28.182Z,93.88
2023-02-08T04:00:58.289Z,93.82
2023-02-08T04:03:28.155Z,93.80
2023-02-08T04:05:56.881Z,93.79
2023-02-08T04:08:27.357Z,93.82
2023-02-08T04:10:55.652Z,93.82
2023-02-08T04:13:24.145Z,93.79
2023-02-08T04:15:52.223Z,93.81
2023-02-08T04:18:23.479Z,93.78
2023-02-08T04:20:54.221Z,93.83
2023-02-08T04:23:22.474Z,93.79
2023-02-08T04:25:52.276Z,93.85
2023-02-08T04:28:21.635Z,93.80
2023-02-08T04:30:49.910Z,93.81
2023-02-08T04:33:18.008Z,93.84
2023-02-08T04:35:47.423Z,93.91
2023-02-08T04:38:16.030Z,93.94
2023-02-08T04:40:44.140Z,93.93
2023-02-08T04:43:19.092Z,93.94
2023-02-08T04:45:48.744Z,93.97
2023-02-08T04:48:17.184Z,93.93
2023-02-08T04:50:45.334Z,93.90
2023-02-08T04:53:13.944Z,93.96
2023-02-08T04:55:44.408Z,93.96
2023-02-08T04:58:12.502Z,93.93
2023-02-08T05:00:42.357Z,93.85
2023-02-08T05:03:11.399Z,93.82
2023-02-08T05:05:39.697Z,93.94
2023-02-08T05:08:08.109Z,94.05
2023-02-08T05:10:36.210Z,94.11
2023-02-08T05:13:06.820Z,94.08
2023-02-08T05:15:35.993Z,94.03
2023-02-08T05:18:05.786Z,94.01
2023-02-08T05:20:36.585Z,94.01
2023-02-08T05:23:06.382Z,93.92
2023-02-08T05:25:34.835Z,94.02
2023-02-08T05:28:02.976Z,94.12
2023-02-08T05:30:32.584Z,94.13
2023-02-08T05:33:01.388Z,94.11
2023-02-08T05:35:30.832Z,94.12
2023-02-08T05:37:58.933Z,94.13
2023-02-08T05:40:27.190Z,94.13
2023-02-08T05:42:55.813Z,94.05
2023-02-08T05:45:25.093Z,94.08
2023-02-08T05:47:54.564Z,94.10
2023-02-08T05:50:22.573Z,94.02
2023-02-08T05:52:52.143Z,93.95
2023-02-08T05:55:20.929Z,93.96
2023-02-08T05:57:50.262Z,93.93
2023-02-08T06:00:21.431Z,93.87
2023-02-08T06:02:50.091Z,93.85
2023-02-08T06:05:18.212Z,94.42
2023-02-08T06:07:46.511Z,94.47
2023-02-08T06:10:17.498Z,94.41
2023-02-08T06:12:45.654Z,94.16
2023-02-08T06:15:14.024Z,94.31
2023-02-08T06:17:42.177Z,94.13
2023-02-08T06:20:12.102Z,93.87
2023-02-08T06:22:40.652Z,93.66
2023-02-08T06:25:09.086Z,93.53
2023-02-08T06:27:38.663Z,93.50
2023-02-08T06:30:08.410Z,93.42
2023-02-08T06:32:36.525Z,93.33
2023-02-08T06:35:04.838Z,93.21
2023-02-08T06:37:34.682Z,93.13
2023-02-08T06:40:03.397Z,93.09
2023-02-08T06:42:31.786Z,93.08
2023-02-08T06:45:02.205Z,93.14
2023-02-08T06:47:30.565Z,93.03
2023-02-08T06:49:59.916Z,93.04
2023-02-08T06:52:28.101Z,93.00
2023-02-08T06:54:56.333Z,93.04
2023-02-08T06:57:27.917Z,93.10
2023-02-08T06:59:56.573Z,93.39
2023-02-08T07:02:26.537Z,93.29
2023-02-08T07:04:54.652Z,93.15
2023-02-08T07:07:22.784Z,93.10
2023-02-08T07:09:51.298Z,93.07
2023-02-08T07:12:19.422Z,93.09
2023-02-08T07:14:47.424Z,93.07
2023-02-08T07:17:15.890Z,92.92
2023-02-08T07:19:46.515Z,92.68
2023-02-08T07:22:14.552Z,92.50
2023-02-08T07:24:44.007Z,92.37
2023-02-08T07:27:13.850Z,92.17
2023-02-08T07:29:41.994Z,91.98
2023-02-08T07:32:11.622Z,91.71
2023-02-08T07:34:40.793Z,91.55
2023-02-08T07:37:10.525Z,91.20
2023-02-08T07:39:39.812Z,91.11
2023-02-08T07:42:09.296Z,90.75
2023-02-08T07:44:38.254Z,90.36
2023-02-08T07:47:06.467Z,90.10
2023-02-08T07:49:34.796Z,89.63
2023-02-08T07:52:03.346Z,89.28
2023-02-08T07:54:32.744Z,89.08
2023-02-08T07:57:03.177Z,89.01
2023-02-08T07:59:33.345Z,88.89
2023-02-08T08:02:01.579Z,88.71
2023-02-08T08:04:31.974Z,87.79
2023-02-08T08:07:00.004Z,87.41
2023-02-08T08:09:29.110Z,87.03
2023-02-08T08:11:59.469Z,86.80
2023-02-08T08:14:27.805Z,86.76
2023-02-08T08:16:55.836Z,86.11
2023-02-08T08:19:25.393Z,85.86
2023-02-08T08:21:53.841Z,85.28
2023-02-08T08:24:21.973Z,85.26
2023-02-08T08:26:49.996Z,85.02
2023-02-08T08:29:20.406Z,84.45
2023-02-08T08:31:51.956Z,84.37
2023-02-08T08:34:20.229Z,83.82
2023-02-08T08:36:48.994Z,82.80
2023-02-08T08:39:18.599Z,82.16
2023-02-08T08:41:47.089Z,81.71
2023-02-08T08:44:15.885Z,81.09
2023-02-08T08:46:45.526Z,80.66
2023-02-08T08:49:13.858Z,79.78
2023-02-08T08:51:42.192Z,79.75
2023-02-08T08:54:10.339Z,79.56
2023-02-08T08:56:38.822Z,79.22
2023-02-08T08:59:07.071Z,78.67
2023-02-08T09:01:35.287Z,77.93
2023-02-08T09:04:06.984Z,77.27
2023-02-08T09:06:35.979Z,76.97
2023-02-08T09:09:04.624Z,76.22
2023-02-08T09:11:34.425Z,75.75
2023-02-08T09:14:04.568Z,74.37
2023-02-08T09:16:33.523Z,74.62
2023-02-08T09:19:02.185Z,74.88
2023-02-08T09:21:33.965Z,74.42
2023-02-08T09:24:05.084Z,74.56
2023-02-08T09:26:33.283Z,73.97
2023-02-08T09:29:02.393Z,73.48
2023-02-08T09:31:32.477Z,73.89
2023-02-08T09:34:02.830Z,73.01
2023-02-08T09:36:34.955Z,73.19
2023-02-08T09:39:05.898Z,72.70
2023-02-08T09:41:53.933Z,72.20
2023-02-08T09:44:26.823Z,73.00
2023-02-08T09:46:58.586Z,72.57
2023-02-08T09:49:29.638Z,72.08
2023-02-08T09:52:01.276Z,72.68
2023-02-08T09:54:32.437Z,72.40
2023-02-08T09:57:02.022Z,73.63
2023-02-08T09:59:33.290Z,79.81
2023-02-08T10:02:04.062Z,79.55
2023-02-08T10:04:44.253Z,78.20
2023-02-08T10:07:16.030Z,75.73
2023-02-08T10:09:44.210Z,76.26
2023-02-08T10:12:20.694Z,75.74
2023-02-08T10:14:58.659Z,73.79
2023-02-08T10:17:47.809Z,68.20
2023-02-08T10:20:25.244Z,68.79
2023-02-08T10:23:01.424Z,69.58
2023-02-08T10:25:43.839Z,70.16
2023-02-08T10:28:25.905Z,70.38
2023-02-08T10:30:58.639Z,70.60
2023-02-08T10:33:32.518Z,70.85
2023-02-08T10:36:00.632Z,70.39
2023-02-08T10:38:45.480Z,70.12
2023-02-08T10:41:20.846Z,70.11
2023-02-08T10:43:53.275Z,70.24
2023-02-08T10:46:23.084Z,70.36
2023-02-08T10:49:01.712Z,70.02
2023-02-08T10:51:30.988Z,70.38
2023-02-08T10:54:00.695Z,70.10
2023-02-08T10:56:46.068Z,69.70
2023-02-08T10:59:20.222Z,69.97
2023-02-08T11:01:50.119Z,69.65
2023-02-08T11:04:19.249Z,69.82
2023-02-08T11:06:48.967Z,69.79
2023-02-08T11:09:24.824Z,70.00
2023-02-08T11:11:54.011Z,69.91
2023-02-08T11:14:35.105Z,70.23
2023-02-08T11:17:29.415Z,69.81
2023-02-08T11:19:59.254Z,70.15
2023-02-08T11:22:31.155Z,70.21
2023-02-08T11:25:02.975Z,69.77
2023-02-08T11:27:33.748Z,69.09
2023-02-08T11:30:19.916Z,69.68
2023-02-08T11:32:50.424Z,70.10
2023-02-08T11:35:25.078Z,70.51
2023-02-08T11:37:54.606Z,71.11
2023-02-08T11:40:36.198Z,71.25
2023-02-08T11:43:05.147Z,71.65
2023-02-08T11:45:35.416Z,71.62
2023-02-08T11:48:05.719Z,71.41
2023-02-08T11:50:36.527Z,71.39
2023-02-08T11:53:08.754Z,72.01
2023-02-08T11:55:40.754Z,71.82
2023-02-08T11:58:20.188Z,72.71
2023-02-08T12:00:59.763Z,72.58
2023-02-08T12:03:31.035Z,72.64
2023-02-08T12:06:24.410Z,72.86
2023-02-08T12:08:59.925Z,73.12
2023-02-08T12:11:34.839Z,73.27
2023-02-08T12:14:42.042Z,73.54
2023-02-08T12:17:35.768Z,73.74
2023-02-08T12:20:37.802Z,73.53
2023-02-08T12:23:25.393Z,73.44
2023-02-08T12:25:58.473Z,73.17
2023-02-08T12:28:40.267Z,73.25
2023-02-08T12:31:15.771Z,73.10
2023-02-08T12:33:53.768Z,72.66
2023-02-08T12:36:31.483Z,72.29
2023-02-08T12:39:29.488Z,72.14
2023-02-08T12:42:25.366Z,72.57
2023-02-08T12:45:31.213Z,72.42
2023-02-08T12:48:08.463Z,72.42
2023-02-08T12:50:42.569Z,72.28
2023-02-08T12:53:20.901Z,72.08
2023-02-08T12:55:49.976Z,72.23
2023-02-08T12:58:28.204Z,72.09
2023-02-08T13:01:03.596Z,72.89
2023-02-08T13:03:37.134Z,72.29
2023-02-08T13:06:07.454Z,72.34
2023-02-08T13:08:41.965Z,72.30
2023-02-08T13:11:20.082Z,73.17
2023-02-08T13:13:59.839Z,73.14
2023-02-08T13:16:34.470Z,72.70
2023-02-08T13:19:25.379Z,72.31
2023-02-08T13:21:54.776Z,72.05
2023-02-08T13:24:38.477Z,72.27
2023-02-08T13:27:08.229Z,73.00
2023-02-08T13:29:37.725Z,72.72
2023-02-08T13:32:10.205Z,72.94
2023-02-08T13:34:41.989Z,72.54
2023-02-08T13:37:25.249Z,72.66
2023-02-08T13:40:01.632Z,72.66
2023-02-08T13:42:32.859Z,72.27
2023-02-08T13:45:02.274Z,72.15
2023-02-08T13:47:33.656Z,72.43
2023-02-08T13:50:07.285Z,72.13
2023-02-08T13:52:52.151Z,72.00
2023-02-08T13:55:42.440Z,72.21
2023-02-08T13:58:31.656Z,72.06
2023-02-08T14:01:10.496Z,72.35
2023-02-08T14:03:41.222Z,71.99
2023-02-08T14:06:19.375Z,71.92
2023-02-08T14:08:55.494Z,71.93
2023-02-08T14:11:34.078Z,71.20
2023-02-08T14:14:04.445Z,71.49
2023-02-08T14:16:33.636Z,71.22
2023-02-08T14:19:06.295Z,70.95
2023-02-08T14:21:38.491Z,71.53
2023-02-08T14:24:18.665Z,71.26
2023-02-08T14:26:47.337Z,71.19
2023-02-08T14:29:23.217Z,71.38
2023-02-08T14:31:53.126Z,71.12
2023-02-08T14:34:34.642Z,71.03
2023-02-08T14:37:08.865Z,71.26
2023-02-08T14:39:38.765Z,71.63
2023-02-08T14:42:09.112Z,71.41
2023-02-08T14:45:05.592Z,71.24
2023-02-08T14:48:06.617Z,71.39
2023-02-08T14:51:04.356Z,71.78
2023-02-08T14:53:45.031Z,71.65
2023-02-08T14:56:20.675Z,71.41
2023-02-08T14:58:52.287Z,71.64
2023-02-08T15:01:24.234Z,71.78
2023-02-08T15:03:55.897Z,71.81
2023-02-08T15:07:01.892Z,71.63
2023-02-08T15:09:31.494Z,71.52
2023-02-08T15:12:02.722Z,71.80
2023-02-08T15:14:33.723Z,72.07
2023-02-08T15:17:02.484Z,72.03
2023-02-08T15:19:34.189Z,72.15
2023-02-08T15:22:19.662Z,72.33
2023-02-08T15:24:51.848Z,71.78
2023-02-08T15:27:23.429Z,72.50
2023-02-08T15:29:52.197Z,72.54
2023-02-08T15:32:23.807Z,72.49
2023-02-08T15:34:56.314Z,75.13
2023-02-08T15:37:26.469Z,76.14
2023-02-08T15:39:57.018Z,75.67
2023-02-08T15:42:29.998Z,73.20
2023-02-08T15:45:00.679Z,71.69
2023-02-08T15:47:30.938Z,71.56
2023-02-08T15:49:59.949Z,71.89
2023-02-08T15:52:32.985Z,72.01
2023-02-08T15:55:01.013Z,72.62
2023-02-08T15:57:35.394Z,72.89
2023-02-08T16:00:06.129Z,73.03
2023-02-08T16:02:35.618Z,73.18
2023-02-08T16:05:13.871Z,73.14
2023-02-08T16:07:48.182Z,72.94
2023-02-08T16:10:27.141Z,73.31
2023-02-08T16:13:01.849Z,73.64
2023-02-08T16:15:38.634Z,73.65
2023-02-08T16:18:06.845Z,73.52
2023-02-08T16:20:36.817Z,73.58
2023-02-08T16:23:24.640Z,73.95
2023-02-08T16:25:53.197Z,73.58
2023-02-08T16:28:31.292Z,73.92
2023-02-08T16:31:02.755Z,74.20
2023-02-08T16:33:31.842Z,74.43
2023-02-08T16:36:02.830Z,74.54
2023-02-08T16:38:36.219Z,74.82
2023-02-08T16:41:14.793Z,75.07
2023-02-08T16:43:44.808Z,75.26
2023-02-08T16:46:22.456Z,75.20
2023-02-08T16:48:54.279Z,75.66
2023-02-08T16:51:25.565Z,75.49
2023-02-08T16:53:58.187Z,75.76
2023-02-08T16:56:26.328Z,75.80
2023-02-08T16:58:54.750Z,75.81
2023-02-08T17:01:23.759Z,75.97
2023-02-08T17:03:53.287Z,75.93
2023-02-08T17:06:28.117Z,76.08
2023-02-08T17:09:02.405Z,76.40
2023-02-08T17:11:30.838Z,76.39
2023-02-08T17:13:59.962Z,76.53
2023-02-08T17:16:30.511Z,83.22
2023-02-08T17:19:01.675Z,86.52
2023-02-08T17:21:31.621Z,85.55
2023-02-08T17:24:01.713Z,78.44
2023-02-08T17:26:31.134Z,76.19
2023-02-08T17:29:02.143Z,75.84
2023-02-08T17:31:30.425Z,75.94
2023-02-08T17:34:04.469Z,76.37
2023-02-08T17:36:36.564Z,76.66
2023-02-08T17:39:06.494Z,77.09
2023-02-08T17:41:35.630Z,77.03
2023-02-08T17:44:04.244Z,77.39
2023-02-08T17:46:32.924Z,77.52
2023-02-08T17:49:03.704Z,77.81
2023-02-08T17:51:34.641Z,78.12
2023-02-08T17:54:07.336Z,78.25
2023-02-08T17:56:36.555Z,78.37
2023-02-08T17:59:05.635Z,78.65
2023-02-08T18:01:35.093Z,78.98
2023-02-08T18:04:03.415Z,78.89
2023-02-08T18:06:31.586Z,78.99
2023-02-08T18:08:59.808Z,79.10
2023-02-08T18:11:30.330Z,79.17
2023-02-08T18:14:01.292Z,79.55
2023-02-08T18:16:31.952Z,79.91
2023-02-08T18:19:01.864Z,80.23
2023-02-08T18:21:33.083Z,80.32
2023-02-08T18:24:02.370Z,80.33
2023-02-08T18:26:35.741Z,80.33
2023-02-08T18:29:06.495Z,80.53
2023-02-08T18:31:34.964Z,80.58
2023-02-08T18:34:05.388Z,80.76
2023-02-08T18:36:37.261Z,80.96
2023-02-08T18:39:09.128Z,81.02
2023-02-08T18:41:38.899Z,81.07
2023-02-08T18:44:10.102Z,81.10
2023-02-08T18:46:38.338Z,80.80
2023-02-08T18:49:07.124Z,80.80
2023-02-08T18:51:35.685Z,80.90
2023-02-08T18:54:04.269Z,80.84
2023-02-08T18:56:33.766Z,80.80
2023-02-08T18:59:03.292Z,80.78
2023-02-08T19:01:32.405Z,80.72
2023-02-08T19:04:00.651Z,80.75
2023-02-08T19:06:31.330Z,80.83
2023-02-08T19:09:01.733Z,80.77
2023-02-08T19:11:36.233Z,80.90
2023-02-08T19:14:06.938Z,80.85
2023-02-08T19:16:37.229Z,80.84
2023-02-08T19:19:09.018Z,80.66
2023-02-08T19:21:37.734Z,80.75
2023-02-08T19:24:06.702Z,80.73
2023-02-08T19:26:40.917Z,80.72
2023-02-08T19:29:13.585Z,80.89
2023-02-08T19:31:50.454Z,80.87
2023-02-08T19:34:20.377Z,80.80
2023-02-08T19:36:51.724Z,80.84
2023-02-08T19:39:24.810Z,80.89
2023-02-08T19:41:54.245Z,80.94
2023-02-08T19:44:23.859Z,80.91
2023-02-08T19:46:54.932Z,80.90
2023-02-08T19:49:25.833Z,80.95
2023-02-08T19:51:54.269Z,80.89
2023-02-08T19:54:23.032Z,80.77
2023-02-08T19:56:54.775Z,80.74
2023-02-08T19:59:27.626Z,80.81
2023-02-08T20:01:56.348Z,80.85
2023-02-08T20:04:25.607Z,80.67
2023-02-08T20:06:54.947Z,80.70
2023-02-08T20:09:23.682Z,80.64
2023-02-08T20:11:59.722Z,80.54
2023-02-08T20:14:31.314Z,80.52
2023-02-08T20:16:59.773Z,80.61
2023-02-08T20:19:28.382Z,80.67
2023-02-08T20:21:56.553Z,80.64
2023-02-08T20:24:25.342Z,80.66
2023-02-08T20:26:53.353Z,80.54
2023-02-08T20:29:21.706Z,80.55
2023-02-08T20:31:56.080Z,80.43
2023-02-08T20:34:24.955Z,80.45
2023-02-08T20:37:06.499Z,80.37
2023-02-08T20:39:36.416Z,80.26
2023-02-08T20:42:07.365Z,80.21
2023-02-08T20:44:35.725Z,80.24
2023-02-08T20:47:05.101Z,80.04
2023-02-08T20:49:37.792Z,79.86
2023-02-08T20:52:07.140Z,80.09
2023-02-08T20:54:35.343Z,80.01
2023-02-08T20:57:04.168Z,79.94
2023-02-08T20:59:32.718Z,79.89
2023-02-08T21:02:04.931Z,79.98
2023-02-08T21:04:34.917Z,79.75
2023-02-08T21:07:02.966Z,79.81
2023-02-08T21:09:32.022Z,79.86
2023-02-08T21:12:00.340Z,79.75
2023-02-08T21:14:28.578Z,79.85
2023-02-08T21:16:58.904Z,79.94
2023-02-08T21:19:29.214Z,80.02
2023-02-08T21:22:00.206Z,79.94
2023-02-08T21:24:31.687Z,80.16
2023-02-08T21:26:59.948Z,80.26
2023-02-08T21:29:29.492Z,80.21
2023-02-08T21:31:58.754Z,80.31
2023-02-08T21:34:27.195Z,80.33
2023-02-08T21:36:55.196Z,80.50
2023-02-08T21:39:24.616Z,80.38
2023-02-08T21:41:53.268Z,80.50
2023-02-08T21:44:21.324Z,80.56
2023-02-08T21:46:49.644Z,80.67
2023-02-08T21:49:35.545Z,80.77
2023-02-08T21:52:21.142Z,80.83
2023-02-08T21:54:53.737Z,80.78
2023-02-08T21:57:23.879Z,80.92
2023-02-08T21:59:54.912Z,80.70
2023-02-08T22:02:25.978Z,80.79
2023-02-08T22:05:12.776Z,80.85
2023-02-08T22:07:42.921Z,80.85
2023-02-08T22:10:13.792Z,80.93
2023-02-08T22:12:41.941Z,81.13
2023-02-08T22:15:11.608Z,81.30
2023-02-08T22:17:40.169Z,81.29
2023-02-08T22:20:08.866Z,81.23
2023-02-08T22:22:37.171Z,81.34
2023-02-08T22:25:05.592Z,81.28
2023-02-08T22:27:36.568Z,81.21
2023-02-08T22:30:05.456Z,81.25
2023-02-08T22:32:33.685Z,81.26
2023-02-08T22:35:02.861Z,81.37
2023-02-08T22:37:34.412Z,81.24
2023-02-08T22:40:03.172Z,81.23
2023-02-08T22:42:32.759Z,81.08
2023-02-08T22:45:03.957Z,81.12
2023-02-08T22:47:34.075Z,81.19
2023-02-08T22:50:02.585Z,81.22
2023-02-08T22:52:35.359Z,81.32
2023-02-08T22:55:04.878Z,81.43
2023-02-08T22:57:34.343Z,81.44
2023-02-08T23:00:07.871Z,81.45
2023-02-08T23:02:36.144Z,81.45
2023-02-08T23:05:04.458Z,81.44
2023-02-08T23:07:34.232Z,81.54
2023-02-08T23:10:02.500Z,81.63
2023-02-08T23:12:31.276Z,81.49
2023-02-08T23:15:00.445Z,81.62
2023-02-08T23:17:32.115Z,81.65
2023-02-08T23:20:00.431Z,81.68
2023-02-08T23:22:28.696Z,81.71
2023-02-08T23:24:57.405Z,81.77
2023-02-08T23:27:27.188Z,81.75
2023-02-08T23:29:55.645Z,81.84
2023-02-08T23:32:23.889Z,81.94
2023-02-08T23:34:53.499Z,81.93
2023-02-08T23:37:22.240Z,81.89
2023-02-08T23:39:50.698Z,81.94
2023-02-08T23:42:26.501Z,82.05
2023-02-08T23:44:56.277Z,82.22
2023-02-08T23:47:25.163Z,82.24
2023-02-08T23:49:55.031Z,82.33
2023-02-08T23:52:23.418Z,82.40
2023-02-08T23:54:51.454Z,82.36
2023-02-08T23:57:19.760Z,82.58
2023-02-08T23:59:50.008Z,82.76
